sensor_id;sensor_type;location;lat;lon;timestamp;pressure;altitude;pressure_sealevel;temperature
28305;BMP280;15569;42.652;23.040;2022-09-09T00:01:59;93275.38;;;23.38
28305;BMP280;15569;42.652;23.040;2022-09-09T00:04:29;93271.34;;;23.91
28305;BMP280;15569;42.652;23.040;2022-09-09T00:07:14;93263.03;;;23.91
28305;BMP280;15569;42.652;23.040;2022-09-09T00:12:41;93264.34;;;23.62
28305;BMP280;15569;42.652;23.040;2022-09-09T00:15:20;93255.97;;;23.44
28305;BMP280;15569;42.652;23.040;2022-09-09T00:17:53;93254.53;;;23.27
28305;BMP280;15569;42.652;23.040;2022-09-09T00:20:47;93258.19;;;22.38
28305;BMP280;15569;42.652;23.040;2022-09-09T00:23:28;93247.34;;;22.76
28305;BMP280;15569;42.652;23.040;2022-09-09T00:26:02;93243.88;;;22.71
28305;BMP280;15569;42.652;23.040;2022-09-09T00:28:30;93237.66;;;22.77
28305;BMP280;15569;42.652;23.040;2022-09-09T00:31:16;93223.94;;;23.07
28305;BMP280;15569;42.652;23.040;2022-09-09T00:33:46;93239.97;;;23.23
28305;BMP280;15569;42.652;23.040;2022-09-09T00:36:18;93240.53;;;22.97
28305;BMP280;15569;42.652;23.040;2022-09-09T00:38:49;93244.13;;;23.20
28305;BMP280;15569;42.652;23.040;2022-09-09T00:44:30;93248.38;;;23.57
28305;BMP280;15569;42.652;23.040;2022-09-09T00:49:53;93242.59;;;21.27
28305;BMP280;15569;42.652;23.040;2022-09-09T00:55:43;93241.56;;;21.56
28305;BMP280;15569;42.652;23.040;2022-09-09T00:58:10;93237.25;;;22.17
28305;BMP280;15569;42.652;23.040;2022-09-09T01:00:42;93230.56;;;22.48
28305;BMP280;15569;42.652;23.040;2022-09-09T01:03:34;93230.81;;;22.94
28305;BMP280;15569;42.652;23.040;2022-09-09T01:11:04;93243.03;;;22.51
28305;BMP280;15569;42.652;23.040;2022-09-09T01:13:34;93239.06;;;21.84
28305;BMP280;15569;42.652;23.040;2022-09-09T01:16:03;93251.16;;;20.44
28305;BMP280;15569;42.652;23.040;2022-09-09T01:18:33;93251.25;;;19.31
28305;BMP280;15569;42.652;23.040;2022-09-09T01:28:37;93234.19;;;21.83
28305;BMP280;15569;42.652;23.040;2022-09-09T01:31:05;93247.84;;;22.42
28305;BMP280;15569;42.652;23.040;2022-09-09T01:33:31;93234.19;;;22.76
28305;BMP280;15569;42.652;23.040;2022-09-09T01:38:37;93243.44;;;23.25
28305;BMP280;15569;42.652;23.040;2022-09-09T01:41:03;93237.22;;;23.37
28305;BMP280;15569;42.652;23.040;2022-09-09T01:43:29;93254.63;;;23.59
28305;BMP280;15569;42.652;23.040;2022-09-09T01:45:56;93251.91;;;23.85
28305;BMP280;15569;42.652;23.040;2022-09-09T01:48:24;93240.78;;;24.15
28305;BMP280;15569;42.652;23.040;2022-09-09T01:50:50;93229.66;;;24.31
28305;BMP280;15569;42.652;23.040;2022-09-09T01:53:17;93232.41;;;24.46
28305;BMP280;15569;42.652;23.040;2022-09-09T02:01:05;93246.31;;;23.55
28305;BMP280;15569;42.652;23.040;2022-09-09T02:03:32;93241.47;;;23.92
28305;BMP280;15569;42.652;23.040;2022-09-09T02:13:40;93229.69;;;24.25
28305;BMP280;15569;42.652;23.040;2022-09-09T02:21:44;93250.50;;;24.59
28305;BMP280;15569;42.652;23.040;2022-09-09T02:24:13;93250.47;;;24.69
28305;BMP280;15569;42.652;23.040;2022-09-09T02:26:42;93253.91;;;24.85
28305;BMP280;15569;42.652;23.040;2022-09-09T02:29:18;93257.34;;;24.84
28305;BMP280;15569;42.652;23.040;2022-09-09T02:31:46;93255.31;;;24.74
28305;BMP280;15569;42.652;23.040;2022-09-09T02:34:13;93256.66;;;24.87
28305;BMP280;15569;42.652;23.040;2022-09-09T02:36:42;93248.31;;;24.95
28305;BMP280;15569;42.652;23.040;2022-09-09T02:39:09;93250.38;;;25.01
28305;BMP280;15569;42.652;23.040;2022-09-09T02:41:37;93255.94;;;25.03
28305;BMP280;15569;42.652;23.040;2022-09-09T02:44:09;93260.09;;;25.02
28305;BMP280;15569;42.652;23.040;2022-09-09T02:52:04;93255.25;;;24.94
28305;BMP280;15569;42.652;23.040;2022-09-09T02:54:35;93249.00;;;24.98
28305;BMP280;15569;42.652;23.040;2022-09-09T02:57:19;93236.47;;;24.97
28305;BMP280;15569;42.652;23.040;2022-09-09T02:59:46;93246.84;;;25.04
28305;BMP280;15569;42.652;23.040;2022-09-09T03:02:12;93253.13;;;25.13
28305;BMP280;15569;42.652;23.040;2022-09-09T03:04:39;93259.31;;;25.17
28305;BMP280;15569;42.652;23.040;2022-09-09T03:07:04;93260.03;;;25.18
28305;BMP280;15569;42.652;23.040;2022-09-09T03:09:30;93254.47;;;25.18
28305;BMP280;15569;42.652;23.040;2022-09-09T03:11:58;93253.75;;;25.19
28305;BMP280;15569;42.652;23.040;2022-09-09T03:14:23;93231.56;;;25.05
28305;BMP280;15569;42.652;23.040;2022-09-09T03:16:54;93248.91;;;25.22
28305;BMP280;15569;42.652;23.040;2022-09-09T03:19:20;93246.13;;;25.20
28305;BMP280;15569;42.652;23.040;2022-09-09T03:21:46;93243.38;;;25.16
28305;BMP280;15569;42.652;23.040;2022-09-09T03:24:13;93252.50;;;24.78
28305;BMP280;15569;42.652;23.040;2022-09-09T03:26:39;93242.06;;;24.85
28305;BMP280;15569;42.652;23.040;2022-09-09T03:29:06;93244.84;;;24.93
28305;BMP280;15569;42.652;23.040;2022-09-09T03:31:35;93243.44;;;24.98
28305;BMP280;15569;42.652;23.040;2022-09-09T03:34:01;93244.09;;;25.00
28305;BMP280;15569;42.652;23.040;2022-09-09T03:36:27;93235.88;;;24.54
28305;BMP280;15569;42.652;23.040;2022-09-09T03:38:53;93239.34;;;24.71
28305;BMP280;15569;42.652;23.040;2022-09-09T03:41:20;93242.09;;;24.77
28305;BMP280;15569;42.652;23.040;2022-09-09T03:43:47;93236.53;;;24.83
28305;BMP280;15569;42.652;23.040;2022-09-09T03:46:12;93237.22;;;24.85
28305;BMP280;15569;42.652;23.040;2022-09-09T03:48:37;93242.13;;;24.71
28305;BMP280;15569;42.652;23.040;2022-09-09T03:51:03;93245.13;;;22.50
28305;BMP280;15569;42.652;23.040;2022-09-09T03:53:29;93243.06;;;22.53
28305;BMP280;15569;42.652;23.040;2022-09-09T03:55:56;93232.31;;;23.17
28305;BMP280;15569;42.652;23.040;2022-09-09T03:58:24;93254.63;;;20.46
28305;BMP280;15569;42.652;23.040;2022-09-09T04:00:58;93249.28;;;21.68
28305;BMP280;15569;42.652;23.040;2022-09-09T04:03:24;93248.16;;;21.99
28305;BMP280;15569;42.652;23.040;2022-09-09T04:05:54;93249.88;;;22.38
28305;BMP280;15569;42.652;23.040;2022-09-09T04:08:21;93243.88;;;22.73
28305;BMP280;15569;42.652;23.040;2022-09-09T04:10:48;93248.00;;;21.77
28305;BMP280;15569;42.652;23.040;2022-09-09T04:13:14;93250.03;;;22.58
28305;BMP280;15569;42.652;23.040;2022-09-09T04:15:41;93246.75;;;23.00
28305;BMP280;15569;42.652;23.040;2022-09-09T04:18:07;93236.47;;;23.26
28305;BMP280;15569;42.652;23.040;2022-09-09T04:20:33;93240.72;;;23.53
28305;BMP280;15569;42.652;23.040;2022-09-09T04:22:58;93247.00;;;23.74
28305;BMP280;15569;42.652;23.040;2022-09-09T04:25:24;93249.84;;;23.96
28305;BMP280;15569;42.652;23.040;2022-09-09T04:27:54;93235.94;;;24.12
28305;BMP280;15569;42.652;23.040;2022-09-09T04:30:20;93229.69;;;24.23
28305;BMP280;15569;42.652;23.040;2022-09-09T04:32:46;93226.91;;;24.42
28305;BMP280;15569;42.652;23.040;2022-09-09T04:35:11;93242.16;;;24.57
28305;BMP280;15569;42.652;23.040;2022-09-09T04:37:37;93248.41;;;24.47
28305;BMP280;15569;42.652;23.040;2022-09-09T04:40:02;93266.47;;;24.68
28305;BMP280;15569;42.652;23.040;2022-09-09T04:42:28;93257.34;;;24.88
28305;BMP280;15569;42.652;23.040;2022-09-09T04:44:53;93246.94;;;24.92
28305;BMP280;15569;42.652;23.040;2022-09-09T04:47:19;93246.91;;;24.96
28305;BMP280;15569;42.652;23.040;2022-09-09T04:49:45;93239.91;;;25.05
28305;BMP280;15569;42.652;23.040;2022-09-09T04:52:10;93240.63;;;25.10
28305;BMP280;15569;42.652;23.040;2022-09-09T04:54:36;93243.34;;;25.18
28305;BMP280;15569;42.652;23.040;2022-09-09T04:57:01;93234.28;;;25.23
28305;BMP280;15569;42.652;23.040;2022-09-09T04:59:27;93226.56;;;25.32
28305;BMP280;15569;42.652;23.040;2022-09-09T05:01:52;93214.75;;;25.33
28305;BMP280;15569;42.652;23.040;2022-09-09T05:04:20;93225.09;;;25.47
28305;BMP280;15569;42.652;23.040;2022-09-09T05:06:45;93227.91;;;25.47
28305;BMP280;15569;42.652;23.040;2022-09-09T05:09:11;93244.22;;;23.58
28305;BMP280;15569;42.652;23.040;2022-09-09T05:11:36;93240.28;;;22.55
28305;BMP280;15569;42.652;23.040;2022-09-09T05:14:03;93224.78;;;23.50
28305;BMP280;15569;42.652;23.040;2022-09-09T05:16:28;93222.13;;;22.32
28305;BMP280;15569;42.652;23.040;2022-09-09T05:18:54;93227.88;;;21.08
28305;BMP280;15569;42.652;23.040;2022-09-09T05:21:22;93230.88;;;21.26
28305;BMP280;15569;42.652;23.040;2022-09-09T05:23:48;93218.91;;;21.76
28305;BMP280;15569;42.652;23.040;2022-09-09T05:26:16;93227.03;;;20.98
28305;BMP280;15569;42.652;23.040;2022-09-09T05:28:42;93225.59;;;20.93
28305;BMP280;15569;42.652;23.040;2022-09-09T05:31:09;93229.25;;;21.71
28305;BMP280;15569;42.652;23.040;2022-09-09T05:33:38;93226.22;;;22.19
28305;BMP280;15569;42.652;23.040;2022-09-09T05:36:08;93221.19;;;23.09
28305;BMP280;15569;42.652;23.040;2022-09-09T05:38:34;93223.41;;;23.55
28305;BMP280;15569;42.652;23.040;2022-09-09T05:41:02;93230.38;;;23.64
28305;BMP280;15569;42.652;23.040;2022-09-09T05:43:28;93231.09;;;23.88
28305;BMP280;15569;42.652;23.040;2022-09-09T05:46:08;93229.69;;;24.11
28305;BMP280;15569;42.652;23.040;2022-09-09T05:48:39;93235.94;;;24.26
28305;BMP280;15569;42.652;23.040;2022-09-09T05:51:06;93231.06;;;24.45
28305;BMP280;15569;42.652;23.040;2022-09-09T05:53:34;93227.59;;;24.22
28305;BMP280;15569;42.652;23.040;2022-09-09T05:56:08;93242.88;;;24.47
28305;BMP280;15569;42.652;23.040;2022-09-09T05:58:38;93251.91;;;24.19
28305;BMP280;15569;42.652;23.040;2022-09-09T06:01:19;93242.88;;;23.85
28305;BMP280;15569;42.652;23.040;2022-09-09T06:03:47;93247.00;;;23.86
28305;BMP280;15569;42.652;23.040;2022-09-09T06:06:27;93258.81;;;23.66
28305;BMP280;15569;42.652;23.040;2022-09-09T06:08:55;93259.53;;;23.97
28305;BMP280;15569;42.652;23.040;2022-09-09T06:11:24;93261.63;;;24.18
28305;BMP280;15569;42.652;23.040;2022-09-09T06:13:50;93258.13;;;23.78
28305;BMP280;15569;42.652;23.040;2022-09-09T06:16:19;93246.38;;;24.23
28305;BMP280;15569;42.652;23.040;2022-09-09T06:18:45;93238.69;;;24.40
28305;BMP280;15569;42.652;23.040;2022-09-09T06:21:17;93249.09;;;24.54
28305;BMP280;15569;42.652;23.040;2022-09-09T06:23:44;93242.13;;;24.65
28305;BMP280;15569;42.652;23.040;2022-09-09T06:26:16;93237.25;;;24.67
28305;BMP280;15569;42.652;23.040;2022-09-09T06:28:48;93235.84;;;24.86
28305;BMP280;15569;42.652;23.040;2022-09-09T06:31:17;93237.88;;;24.94
28305;BMP280;15569;42.652;23.040;2022-09-09T06:33:43;93240.00;;;24.81
28305;BMP280;15569;42.652;23.040;2022-09-09T06:36:12;93236.47;;;25.03
28305;BMP280;15569;42.652;23.040;2022-09-09T06:38:39;93239.84;;;25.21
28305;BMP280;15569;42.652;23.040;2022-09-09T06:41:04;93250.25;;;25.31
28305;BMP280;15569;42.652;23.040;2022-09-09T06:43:31;93249.72;;;24.88
28305;BMP280;15569;42.652;23.040;2022-09-09T06:46:03;93245.41;;;25.23
28305;BMP280;15569;42.652;23.040;2022-09-09T06:48:29;93251.53;;;25.48
28305;BMP280;15569;42.652;23.040;2022-09-09T06:51:06;93262.00;;;25.43
28305;BMP280;15569;42.652;23.040;2022-09-09T06:53:33;93260.44;;;25.74
28305;BMP280;15569;42.652;23.040;2022-09-09T06:56:00;93269.72;;;25.33
28305;BMP280;15569;42.652;23.040;2022-09-09T06:58:27;93256.09;;;24.35
28305;BMP280;15569;42.652;23.040;2022-09-09T07:01:02;93257.41;;;23.63
28305;BMP280;15569;42.652;23.040;2022-09-09T07:03:27;93258.13;;;23.76
28305;BMP280;15569;42.652;23.040;2022-09-09T07:05:56;93258.84;;;24.24
28305;BMP280;15569;42.652;23.040;2022-09-09T07:08:22;93252.53;;;24.70
28305;BMP280;15569;42.652;23.040;2022-09-09T07:10:48;93253.09;;;23.08
28305;BMP280;15569;42.652;23.040;2022-09-09T07:13:14;93251.22;;;23.97
28305;BMP280;15569;42.652;23.040;2022-09-09T07:15:41;93243.50;;;24.70
28305;BMP280;15569;42.652;23.040;2022-09-09T07:18:07;93242.69;;;25.09
28305;BMP280;15569;42.652;23.040;2022-09-09T07:20:32;93245.22;;;25.55
28305;BMP280;15569;42.652;23.040;2022-09-09T07:22:57;93244.94;;;24.18
28305;BMP280;15569;42.652;23.040;2022-09-09T07:25:24;93250.28;;;23.04
28305;BMP280;15569;42.652;23.040;2022-09-09T07:27:53;93246.94;;;23.34
28305;BMP280;15569;42.652;23.040;2022-09-09T07:30:18;93248.97;;;23.29
28305;BMP280;15569;42.652;23.040;2022-09-09T07:32:44;93247.66;;;23.50
28305;BMP280;15569;42.652;23.040;2022-09-09T07:35:10;93245.38;;;22.92
28305;BMP280;15569;42.652;23.040;2022-09-09T07:37:36;93251.78;;;23.35
28305;BMP280;15569;42.652;23.040;2022-09-09T07:40:03;93238.03;;;24.09
28305;BMP280;15569;42.652;23.040;2022-09-09T07:42:28;93237.34;;;24.23
28305;BMP280;15569;42.652;23.040;2022-09-09T07:44:54;93255.97;;;23.50
28305;BMP280;15569;42.652;23.040;2022-09-09T07:47:20;93259.44;;;23.43
28305;BMP280;15569;42.652;23.040;2022-09-09T07:49:46;93258.00;;;23.28
28305;BMP280;15569;42.652;23.040;2022-09-09T07:52:11;93250.47;;;23.58
28305;BMP280;15569;42.652;23.040;2022-09-09T07:54:37;93249.78;;;23.72
28305;BMP280;15569;42.652;23.040;2022-09-09T07:57:03;93245.63;;;23.77
28305;BMP280;15569;42.652;23.040;2022-09-09T07:59:29;93246.34;;;24.09
28305;BMP280;15569;42.652;23.040;2022-09-09T08:01:55;93257.31;;;23.39
28305;BMP280;15569;42.652;23.040;2022-09-09T08:04:22;93263.03;;;23.85
28305;BMP280;15569;42.652;23.040;2022-09-09T08:06:50;93249.81;;;24.04
28305;BMP280;15569;42.652;23.040;2022-09-09T08:09:18;93249.84;;;24.38
28305;BMP280;15569;42.652;23.040;2022-09-09T08:11:44;93247.72;;;24.39
28305;BMP280;15569;42.652;23.040;2022-09-09T08:14:10;93251.19;;;24.43
28305;BMP280;15569;42.652;23.040;2022-09-09T08:16:39;93260.94;;;24.14
28305;BMP280;15569;42.652;23.040;2022-09-09T08:19:05;93258.84;;;23.82
28305;BMP280;15569;42.652;23.040;2022-09-09T08:21:34;93262.97;;;23.69
28305;BMP280;15569;42.652;23.040;2022-09-09T08:24:02;93244.28;;;24.10
28305;BMP280;15569;42.652;23.040;2022-09-09T08:26:38;93247.72;;;24.47
28305;BMP280;15569;42.652;23.040;2022-09-09T08:29:06;93247.00;;;24.64
28305;BMP280;15569;42.652;23.040;2022-09-09T08:31:37;93258.16;;;24.44
28305;BMP280;15569;42.652;23.040;2022-09-09T08:34:04;93239.41;;;24.41
28305;BMP280;15569;42.652;23.040;2022-09-09T08:36:32;93249.06;;;24.70
28305;BMP280;15569;42.652;23.040;2022-09-09T08:39:03;93251.78;;;24.88
28305;BMP280;15569;42.652;23.040;2022-09-09T08:52:37;93244.94;;;24.39
28305;BMP280;15569;42.652;23.040;2022-09-09T08:55:16;93254.44;;;25.30
28305;BMP280;15569;42.652;23.040;2022-09-09T08:57:47;93247.78;;;25.87
28305;BMP280;15569;42.652;23.040;2022-09-09T09:00:14;93248.16;;;26.26
28305;BMP280;15569;42.652;23.040;2022-09-09T09:05:47;93257.25;;;26.29
28305;BMP280;15569;42.652;23.040;2022-09-09T09:10:46;93253.44;;;25.79
28305;BMP280;15569;42.652;23.040;2022-09-09T09:13:18;93247.09;;;25.89
28305;BMP280;15569;42.652;23.040;2022-09-09T09:15:50;93249.56;;;25.26
28305;BMP280;15569;42.652;23.040;2022-09-09T09:18:17;93241.78;;;25.49
28305;BMP280;15569;42.652;23.040;2022-09-09T09:20:50;93247.72;;;26.02
28305;BMP280;15569;42.652;23.040;2022-09-09T09:23:34;93252.84;;;25.65
28305;BMP280;15569;42.652;23.040;2022-09-09T09:26:01;93245.78;;;25.80
28305;BMP280;15569;42.652;23.040;2022-09-09T09:28:30;93247.88;;;25.79
28305;BMP280;15569;42.652;23.040;2022-09-09T09:31:04;93243.16;;;25.52
28305;BMP280;15569;42.652;23.040;2022-09-09T09:36:12;93244.06;;;26.17
28305;BMP280;15569;42.652;23.040;2022-09-09T09:38:51;93247.41;;;26.38
28305;BMP280;15569;42.652;23.040;2022-09-09T09:41:29;93226.19;;;26.67
28305;BMP280;15569;42.652;23.040;2022-09-09T09:43:55;93240.25;;;25.72
28305;BMP280;15569;42.652;23.040;2022-09-09T09:46:22;93226.88;;;25.90
28305;BMP280;15569;42.652;23.040;2022-09-09T09:49:05;93237.47;;;25.70
28305;BMP280;15569;42.652;23.040;2022-09-09T09:51:31;93242.41;;;25.61
28305;BMP280;15569;42.652;23.040;2022-09-09T09:54:30;93241.97;;;26.18
28305;BMP280;15569;42.652;23.040;2022-09-09T09:57:11;93244.63;;;26.38
28305;BMP280;15569;42.652;23.040;2022-09-09T09:59:37;93245.63;;;25.98
28305;BMP280;15569;42.652;23.040;2022-09-09T10:02:21;93240.56;;;25.20
28305;BMP280;15569;42.652;23.040;2022-09-09T10:05:00;93254.47;;;25.18
28305;BMP280;15569;42.652;23.040;2022-09-09T10:07:26;93250.34;;;25.05
28305;BMP280;15569;42.652;23.040;2022-09-09T10:09:56;93261.25;;;25.57
28305;BMP280;15569;42.652;23.040;2022-09-09T10:12:41;93266.97;;;25.21
28305;BMP280;15569;42.652;23.040;2022-09-09T10:27:05;93266.47;;;24.30
28305;BMP280;15569;42.652;23.040;2022-09-09T10:29:57;93274.84;;;24.26
28305;BMP280;15569;42.652;23.040;2022-09-09T10:32:35;93274.81;;;24.08
28305;BMP280;15569;42.652;23.040;2022-09-09T10:35:47;93278.28;;;23.88
28305;BMP280;15569;42.652;23.040;2022-09-09T10:46:06;93279.00;;;24.15
28305;BMP280;15569;42.652;23.040;2022-09-09T10:51:26;93281.78;;;24.05
28305;BMP280;15569;42.652;23.040;2022-09-09T10:57:04;93290.81;;;24.11
28305;BMP280;15569;42.652;23.040;2022-09-09T10:59:40;93274.13;;;24.05
28305;BMP280;15569;42.652;23.040;2022-09-09T11:02:14;93287.34;;;24.37
28305;BMP280;15569;42.652;23.040;2022-09-09T11:04:53;93275.53;;;24.49
28305;BMP280;15569;42.652;23.040;2022-09-09T11:07:43;93266.50;;;24.44
28305;BMP280;15569;42.652;23.040;2022-09-09T11:10:43;93269.25;;;24.40
28305;BMP280;15569;42.652;23.040;2022-09-09T11:14:18;93275.50;;;24.28
28305;BMP280;15569;42.652;23.040;2022-09-09T11:16:40;93265.78;;;24.21
28305;BMP280;15569;42.652;23.040;2022-09-09T11:19:35;93263.03;;;24.29
28305;BMP280;15569;42.652;23.040;2022-09-09T11:22:17;93247.03;;;24.16
28305;BMP280;15569;42.652;23.040;2022-09-09T11:27:31;93224.09;;;24.52
28305;BMP280;15569;42.652;23.040;2022-09-09T11:41:11;93201.91;;;24.13
28305;BMP280;15569;42.652;23.040;2022-09-09T11:43:51;93216.50;;;23.82
28305;BMP280;15569;42.652;23.040;2022-09-09T11:46:20;93212.97;;;23.51
28305;BMP280;15569;42.652;23.040;2022-09-09T11:48:58;93197.03;;;23.80
28305;BMP280;15569;42.652;23.040;2022-09-09T11:59:04;93192.50;;;25.27
28305;BMP280;15569;42.652;23.040;2022-09-09T12:01:39;93175.25;;;25.01
28305;BMP280;15569;42.652;23.040;2022-09-09T12:09:57;93190.72;;;24.50
28305;BMP280;15569;42.652;23.040;2022-09-09T12:12:36;93181.63;;;24.75
28305;BMP280;15569;42.652;23.040;2022-09-09T12:17:53;93176.94;;;24.05
28305;BMP280;15569;42.652;23.040;2022-09-09T12:20:22;93192.84;;;24.25
28305;BMP280;15569;42.652;23.040;2022-09-09T12:26:19;93176.19;;;24.19
28305;BMP280;15569;42.652;23.040;2022-09-09T12:31:25;93180.19;;;24.88
28305;BMP280;15569;42.652;23.040;2022-09-09T12:33:53;93175.50;;;24.12
28305;BMP280;15569;42.652;23.040;2022-09-09T12:36:24;93165.81;;;24.01
28305;BMP280;15569;42.652;23.040;2022-09-09T12:38:51;93168.47;;;24.62
28305;BMP280;15569;42.652;23.040;2022-09-09T12:41:27;93161.63;;;23.86
28305;BMP280;15569;42.652;23.040;2022-09-09T12:44:09;93158.88;;;23.62
28305;BMP280;15569;42.652;23.040;2022-09-09T12:46:39;93152.63;;;23.90
28305;BMP280;15569;42.652;23.040;2022-09-09T12:49:18;93156.09;;;23.94
28305;BMP280;15569;42.652;23.040;2022-09-09T12:51:48;93151.25;;;23.77
28305;BMP280;15569;42.652;23.040;2022-09-09T12:54:14;93146.31;;;24.42
28305;BMP280;15569;42.652;23.040;2022-09-09T12:56:45;93153.31;;;23.68
28305;BMP280;15569;42.652;23.040;2022-09-09T12:59:25;93152.63;;;23.52
28305;BMP280;15569;42.652;23.040;2022-09-09T13:01:58;93142.22;;;23.28
28305;BMP280;15569;42.652;23.040;2022-09-09T13:04:23;93136.66;;;23.38
28305;BMP280;15569;42.652;23.040;2022-09-09T13:06:49;93133.16;;;23.26
28305;BMP280;15569;42.652;23.040;2022-09-09T13:09:15;93140.81;;;23.51
28305;BMP280;15569;42.652;23.040;2022-09-09T13:11:47;93135.28;;;23.31
28305;BMP280;15569;42.652;23.040;2022-09-09T13:14:22;93147.72;;;23.24
28305;BMP280;15569;42.652;23.040;2022-09-09T13:16:59;93139.44;;;24.02
28305;BMP280;15569;42.652;23.040;2022-09-09T13:19:25;93137.28;;;23.09
28305;BMP280;15569;42.652;23.040;2022-09-09T13:21:54;93121.41;;;23.61
28305;BMP280;15569;42.652;23.040;2022-09-09T13:24:33;93111.63;;;24.20
28305;BMP280;15569;42.652;23.040;2022-09-09T13:27:03;93115.81;;;24.09
28305;BMP280;15569;42.652;23.040;2022-09-09T13:29:30;93111.69;;;23.72
28305;BMP280;15569;42.652;23.040;2022-09-09T13:32:15;93113.81;;;23.50
28305;BMP280;15569;42.652;23.040;2022-09-09T13:34:57;93106.13;;;23.90
28305;BMP280;15569;42.652;23.040;2022-09-09T13:37:31;93104.00;;;24.01
28305;BMP280;15569;42.652;23.040;2022-09-09T13:39:59;93104.34;;;24.98
28305;BMP280;15569;42.652;23.040;2022-09-09T13:42:27;93104.00;;;25.48
28305;BMP280;15569;42.652;23.040;2022-09-09T13:44:54;93092.81;;;25.54
28305;BMP280;15569;42.652;23.040;2022-09-09T13:47:41;93105.41;;;25.47
28305;BMP280;15569;42.652;23.040;2022-09-09T13:50:22;93102.13;;;26.01
28305;BMP280;15569;42.652;23.040;2022-09-09T13:52:49;93105.78;;;26.48
28305;BMP280;15569;42.652;23.040;2022-09-09T13:55:17;93110.41;;;26.70
28305;BMP280;15569;42.652;23.040;2022-09-09T14:00:18;93095.31;;;25.86
28305;BMP280;15569;42.652;23.040;2022-09-09T14:02:43;93106.44;;;25.88
28305;BMP280;15569;42.652;23.040;2022-09-09T14:05:09;93098.50;;;26.15
28305;BMP280;15569;42.652;23.040;2022-09-09T14:07:36;93094.59;;;25.01
28305;BMP280;15569;42.652;23.040;2022-09-09T14:10:04;93101.00;;;24.75
28305;BMP280;15569;42.652;23.040;2022-09-09T14:12:29;93108.16;;;25.49
28305;BMP280;15569;42.652;23.040;2022-09-09T14:14:55;93095.06;;;26.12
28305;BMP280;15569;42.652;23.040;2022-09-09T14:17:20;93094.69;;;26.42
28305;BMP280;15569;42.652;23.040;2022-09-09T14:19:47;93087.66;;;24.98
28305;BMP280;15569;42.652;23.040;2022-09-09T14:22:12;93087.91;;;24.56
28305;BMP280;15569;42.652;23.040;2022-09-09T14:24:38;93093.50;;;25.54
28305;BMP280;15569;42.652;23.040;2022-09-09T14:27:03;93087.03;;;27.83
28305;BMP280;15569;42.652;23.040;2022-09-09T14:29:28;93088.59;;;27.74
28305;BMP280;15569;42.652;23.040;2022-09-09T14:31:54;93087.44;;;27.99
28305;BMP280;15569;42.652;23.040;2022-09-09T14:34:19;93092.72;;;28.13
28305;BMP280;15569;42.652;23.040;2022-09-09T14:36:45;93077.84;;;28.59
28305;BMP280;15569;42.652;23.040;2022-09-09T14:39:10;93081.47;;;28.54
28305;BMP280;15569;42.652;23.040;2022-09-09T14:41:36;93084.72;;;26.59
28305;BMP280;15569;42.652;23.040;2022-09-09T14:44:01;93088.16;;;25.26
28305;BMP280;15569;42.652;23.040;2022-09-09T14:46:27;93096.09;;;24.86
28305;BMP280;15569;42.652;23.040;2022-09-09T14:48:52;93096.03;;;24.92
28305;BMP280;15569;42.652;23.040;2022-09-09T14:51:20;93097.50;;;24.75
28305;BMP280;15569;42.652;23.040;2022-09-09T14:53:47;93104.53;;;24.62
28305;BMP280;15569;42.652;23.040;2022-09-09T14:56:18;93101.22;;;24.15
28305;BMP280;15569;42.652;23.040;2022-09-09T14:58:44;93106.06;;;24.22
28305;BMP280;15569;42.652;23.040;2022-09-09T15:01:19;93098.28;;;24.59
28305;BMP280;15569;42.652;23.040;2022-09-09T15:03:51;93099.03;;;25.62
28305;BMP280;15569;42.652;23.040;2022-09-09T15:06:17;93088.16;;;26.03
28305;BMP280;15569;42.652;23.040;2022-09-09T15:08:44;93081.63;;;24.49
28305;BMP280;15569;42.652;23.040;2022-09-09T15:11:10;93084.22;;;24.93
28305;BMP280;15569;42.652;23.040;2022-09-09T15:13:38;93088.47;;;24.82
28305;BMP280;15569;42.652;23.040;2022-09-09T15:16:08;93082.09;;;24.94
28305;BMP280;15569;42.652;23.040;2022-09-09T15:18:35;93078.97;;;25.44
28305;BMP280;15569;42.652;23.040;2022-09-09T15:21:05;93081.63;;;25.58
28305;BMP280;15569;42.652;23.040;2022-09-09T15:23:34;93086.25;;;26.48
28305;BMP280;15569;42.652;23.040;2022-09-09T15:26:00;93086.22;;;26.54
28305;BMP280;15569;42.652;23.040;2022-09-09T15:28:25;93089.75;;;26.49
28305;BMP280;15569;42.652;23.040;2022-09-09T15:30:52;93063.03;;;26.66
28305;BMP280;15569;42.652;23.040;2022-09-09T15:33:19;93072.56;;;26.85
28305;BMP280;15569;42.652;23.040;2022-09-09T15:35:44;93071.66;;;26.98
28305;BMP280;15569;42.652;23.040;2022-09-09T15:38:10;93068.53;;;27.20
28305;BMP280;15569;42.652;23.040;2022-09-09T15:40:38;93072.34;;;27.43
28305;BMP280;15569;42.652;23.040;2022-09-09T15:43:05;93073.47;;;27.58
28305;BMP280;15569;42.652;23.040;2022-09-09T15:45:30;93074.00;;;27.69
28305;BMP280;15569;42.652;23.040;2022-09-09T15:47:57;93065.53;;;27.73
28305;BMP280;15569;42.652;23.040;2022-09-09T15:50:22;93067.94;;;27.95
28305;BMP280;15569;42.652;23.040;2022-09-09T15:52:48;93059.44;;;28.01
28305;BMP280;15569;42.652;23.040;2022-09-09T15:55:13;93062.78;;;28.08
28305;BMP280;15569;42.652;23.040;2022-09-09T15:57:39;93070.38;;;28.13
28305;BMP280;15569;42.652;23.040;2022-09-09T16:00:06;93061.28;;;28.15
28305;BMP280;15569;42.652;23.040;2022-09-09T16:02:32;93059.44;;;28.01
28305;BMP280;15569;42.652;23.040;2022-09-09T16:04:58;93055.22;;;28.02
28305;BMP280;15569;42.652;23.040;2022-09-09T16:07:23;93053.06;;;28.05
28305;BMP280;15569;42.652;23.040;2022-09-09T16:09:48;93050.28;;;28.05
28305;BMP280;15569;42.652;23.040;2022-09-09T16:12:16;93044.91;;;27.93
28305;BMP280;15569;42.652;23.040;2022-09-09T16:14:42;93071.56;;;27.88
28305;BMP280;15569;42.652;23.040;2022-09-09T16:17:07;93060.41;;;27.88
28305;BMP280;15569;42.652;23.040;2022-09-09T16:19:33;93064.56;;;27.89
28305;BMP280;15569;42.652;23.040;2022-09-09T16:21:59;93053.53;;;27.81
28305;BMP280;15569;42.652;23.040;2022-09-09T16:24:25;93061.84;;;27.85
28305;BMP280;15569;42.652;23.040;2022-09-09T16:26:52;93061.78;;;27.87